sensor_id;sensor_type;location;lat;lon;timestamp;P1;durP1;ratioP1;P2;durP2;ratioP2
79761;SDS011;69249;42.122;24.734;2024-01-27T00:00:08;6.97;;;3.72;;
79761;SDS011;69249;42.122;24.734;2024-01-27T00:02:35;8.75;;;2.70;;
79761;SDS011;69249;42.122;24.734;2024-01-27T00:05:00;3.17;;;2.00;;
79761;SDS011;69249;42.122;24.734;2024-01-27T00:07:27;4.97;;;2.45;;
79761;SDS011;69249;42.122;24.734;2024-01-27T00:09:53;3.60;;;2.08;;
79761;SDS011;69249;42.122;24.734;2024-01-27T00:12:19;4.22;;;2.08;;
79761;SDS011;69249;42.122;24.734;2024-01-27T00:14:45;7.20;;;2.33;;
79761;SDS011;69249;42.122;24.734;2024-01-27T00:17:11;5.22;;;2.40;;
79761;SDS011;69249;42.122;24.734;2024-01-27T00:19:36;6.85;;;2.20;;
79761;SDS011;69249;42.122;24.734;2024-01-27T00:22:02;4.38;;;2.25;;
79761;SDS011;69249;42.122;24.734;2024-01-27T00:24:28;3.47;;;2.15;;
79761;SDS011;69249;42.122;24.734;2024-01-27T00:26:53;3.67;;;2.10;;
79761;SDS011;69249;42.122;24.734;2024-01-27T00:29:19;3.78;;;2.08;;
79761;SDS011;69249;42.122;24.734;2024-01-27T00:31:45;3.33;;;2.05;;
79761;SDS011;69249;42.122;24.734;2024-01-27T00:34:11;4.28;;;2.30;;
79761;SDS011;69249;42.122;24.734;2024-01-27T00:36:37;6.68;;;2.50;;
79761;SDS011;69249;42.122;24.734;2024-01-27T00:39:03;3.78;;;2.50;;
79761;SDS011;69249;42.122;24.734;2024-01-27T00:41:29;4.60;;;2.10;;
79761;SDS011;69249;42.122;24.734;2024-01-27T00:43:55;5.72;;;2.55;;
79761;SDS011;69249;42.122;24.734;2024-01-27T00:46:21;9.27;;;2.55;;
79761;SDS011;69249;42.122;24.734;2024-01-27T00:48:47;4.07;;;2.08;;
79761;SDS011;69249;42.122;24.734;2024-01-27T00:51:13;4.90;;;2.40;;
79761;SDS011;69249;42.122;24.734;2024-01-27T00:53:39;4.45;;;2.72;;
79761;SDS011;69249;42.122;24.734;2024-01-27T00:56:05;6.38;;;2.45;;
79761;SDS011;69249;42.122;24.734;2024-01-27T00:58:31;5.47;;;2.22;;
79761;SDS011;69249;42.122;24.734;2024-01-27T01:00:57;4.82;;;2.60;;
79761;SDS011;69249;42.122;24.734;2024-01-27T01:03:23;2.45;;;2.03;;
79761;SDS011;69249;42.122;24.734;2024-01-27T01:05:49;4.68;;;2.40;;
79761;SDS011;69249;42.122;24.734;2024-01-27T01:08:15;3.30;;;2.38;;
79761;SDS011;69249;42.122;24.734;2024-01-27T01:10:41;4.95;;;2.25;;
79761;SDS011;69249;42.122;24.734;2024-01-27T01:13:07;5.05;;;2.80;;
79761;SDS011;69249;42.122;24.734;2024-01-27T01:15:32;5.57;;;2.10;;
79761;SDS011;69249;42.122;24.734;2024-01-27T01:17:58;5.07;;;2.28;;
79761;SDS011;69249;42.122;24.734;2024-01-27T01:20:24;5.60;;;3.33;;
79761;SDS011;69249;42.122;24.734;2024-01-27T01:22:51;3.13;;;2.13;;
79761;SDS011;69249;42.122;24.734;2024-01-27T01:25:17;4.63;;;2.47;;
79761;SDS011;69249;42.122;24.734;2024-01-27T01:27:43;3.90;;;2.20;;
79761;SDS011;69249;42.122;24.734;2024-01-27T01:30:10;2.15;;;1.88;;
79761;SDS011;69249;42.122;24.734;2024-01-27T01:32:36;7.35;;;2.90;;
79761;SDS011;69249;42.122;24.734;2024-01-27T01:35:02;4.15;;;3.42;;
79761;SDS011;69249;42.122;24.734;2024-01-27T01:37:28;9.60;;;4.30;;
79761;SDS011;69249;42.122;24.734;2024-01-27T01:39:54;6.47;;;4.90;;
79761;SDS011;69249;42.122;24.734;2024-01-27T01:42:20;6.20;;;4.82;;
79761;SDS011;69249;42.122;24.734;2024-01-27T01:44:49;8.90;;;5.45;;
79761;SDS011;69249;42.122;24.734;2024-01-27T01:47:16;10.32;;;6.00;;
79761;SDS011;69249;42.122;24.734;2024-01-27T01:49:41;8.10;;;5.53;;
79761;SDS011;69249;42.122;24.734;2024-01-27T01:52:07;8.10;;;6.38;;
79761;SDS011;69249;42.122;24.734;2024-01-27T01:54:34;9.45;;;5.60;;
79761;SDS011;69249;42.122;24.734;2024-01-27T01:56:59;5.38;;;4.90;;
79761;SDS011;69249;42.122;24.734;2024-01-27T01:59:25;8.07;;;4.85;;
79761;SDS011;69249;42.122;24.734;2024-01-27T02:01:51;8.10;;;4.03;;
79761;SDS011;69249;42.122;24.734;2024-01-27T02:04:17;5.97;;;4.30;;
79761;SDS011;69249;42.122;24.734;2024-01-27T02:06:42;7.00;;;4.20;;
79761;SDS011;69249;42.122;24.734;2024-01-27T02:09:08;7.90;;;5.07;;
79761;SDS011;69249;42.122;24.734;2024-01-27T02:11:34;8.82;;;5.40;;
79761;SDS011;69249;42.122;24.734;2024-01-27T02:14:00;7.03;;;5.03;;
79761;SDS011;69249;42.122;24.734;2024-01-27T02:16:26;7.05;;;4.70;;
79761;SDS011;69249;42.122;24.734;2024-01-27T02:18:52;5.35;;;4.80;;
79761;SDS011;69249;42.122;24.734;2024-01-27T02:21:17;8.88;;;4.60;;
79761;SDS011;69249;42.122;24.734;2024-01-27T02:23:43;6.15;;;4.15;;
79761;SDS011;69249;42.122;24.734;2024-01-27T02:26:09;4.07;;;3.63;;
79761;SDS011;69249;42.122;24.734;2024-01-27T02:28:34;5.20;;;3.03;;
79761;SDS011;69249;42.122;24.734;2024-01-27T02:31:00;4.28;;;2.83;;
79761;SDS011;69249;42.122;24.734;2024-01-27T02:33:26;3.50;;;2.78;;
79761;SDS011;69249;42.122;24.734;2024-01-27T02:35:51;6.10;;;2.97;;
79761;SDS011;69249;42.122;24.734;2024-01-27T02:38:17;5.70;;;3.03;;
79761;SDS011;69249;42.122;24.734;2024-01-27T02:40:43;6.25;;;2.88;;
79761;SDS011;69249;42.122;24.734;2024-01-27T02:43:08;3.40;;;3.05;;
79761;SDS011;69249;42.122;24.734;2024-01-27T02:45:34;4.53;;;3.20;;
79761;SDS011;69249;42.122;24.734;2024-01-27T02:48:00;5.50;;;3.03;;
79761;SDS011;69249;42.122;24.734;2024-01-27T02:50:26;5.47;;;3.50;;
79761;SDS011;69249;42.122;24.734;2024-01-27T02:52:52;5.55;;;3.78;;
79761;SDS011;69249;42.122;24.734;2024-01-27T02:55:18;5.53;;;3.17;;
79761;SDS011;69249;42.122;24.734;2024-01-27T02:57:43;6.68;;;3.00;;
79761;SDS011;69249;42.122;24.734;2024-01-27T03:00:09;5.60;;;2.78;;
79761;SDS011;69249;42.122;24.734;2024-01-27T03:02:35;2.42;;;2.13;;
79761;SDS011;69249;42.122;24.734;2024-01-27T03:05:01;3.47;;;2.65;;
79761;SDS011;69249;42.122;24.734;2024-01-27T03:07:26;4.57;;;2.67;;
79761;SDS011;69249;42.122;24.734;2024-01-27T03:09:52;3.40;;;2.38;;
79761;SDS011;69249;42.122;24.734;2024-01-27T03:12:18;6.40;;;2.50;;
79761;SDS011;69249;42.122;24.734;2024-01-27T03:14:44;4.45;;;2.17;;
79761;SDS011;69249;42.122;24.734;2024-01-27T03:17:11;4.10;;;2.60;;
79761;SDS011;69249;42.122;24.734;2024-01-27T03:19:36;4.78;;;2.10;;
79761;SDS011;69249;42.122;24.734;2024-01-27T03:22:02;5.00;;;2.42;;
79761;SDS011;69249;42.122;24.734;2024-01-27T03:24:28;7.45;;;2.88;;
79761;SDS011;69249;42.122;24.734;2024-01-27T03:26:53;6.78;;;2.53;;
79761;SDS011;69249;42.122;24.734;2024-01-27T03:29:19;3.85;;;2.80;;
79761;SDS011;69249;42.122;24.734;2024-01-27T03:31:45;4.05;;;2.58;;
79761;SDS011;69249;42.122;24.734;2024-01-27T03:34:10;5.78;;;2.53;;
79761;SDS011;69249;42.122;24.734;2024-01-27T03:36:36;4.10;;;2.70;;
79761;SDS011;69249;42.122;24.734;2024-01-27T03:39:02;6.75;;;2.53;;
79761;SDS011;69249;42.122;24.734;2024-01-27T03:41:28;5.75;;;2.67;;
79761;SDS011;69249;42.122;24.734;2024-01-27T03:43:54;3.67;;;2.45;;
79761;SDS011;69249;42.122;24.734;2024-01-27T03:46:20;7.20;;;2.80;;
79761;SDS011;69249;42.122;24.734;2024-01-27T03:48:45;4.15;;;2.25;;
79761;SDS011;69249;42.122;24.734;2024-01-27T03:51:11;8.27;;;2.65;;
79761;SDS011;69249;42.122;24.734;2024-01-27T03:53:37;6.28;;;2.65;;
79761;SDS011;69249;42.122;24.734;2024-01-27T03:56:03;3.50;;;2.17;;
79761;SDS011;69249;42.122;24.734;2024-01-27T03:58:29;6.15;;;2.67;;
79761;SDS011;69249;42.122;24.734;2024-01-27T04:00:58;4.60;;;2.20;;
79761;SDS011;69249;42.122;24.734;2024-01-27T04:03:24;4.57;;;2.38;;
79761;SDS011;69249;42.122;24.734;2024-01-27T04:05:50;5.47;;;2.45;;
79761;SDS011;69249;42.122;24.734;2024-01-27T04:08:15;4.47;;;2.50;;
79761;SDS011;69249;42.122;24.734;2024-01-27T04:10:41;4.65;;;2.45;;
79761;SDS011;69249;42.122;24.734;2024-01-27T04:13:06;5.78;;;1.90;;
79761;SDS011;69249;42.122;24.734;2024-01-27T04:15:33;4.05;;;1.90;;
79761;SDS011;69249;42.122;24.734;2024-01-27T04:18:07;3.38;;;2.28;;
79761;SDS011;69249;42.122;24.734;2024-01-27T04:20:34;4.88;;;2.92;;
79761;SDS011;69249;42.122;24.734;2024-01-27T04:23:00;5.00;;;2.28;;
79761;SDS011;69249;42.122;24.734;2024-01-27T04:25:26;3.47;;;2.10;;
79761;SDS011;69249;42.122;24.734;2024-01-27T04:27:52;3.75;;;2.00;;
79761;SDS011;69249;42.122;24.734;2024-01-27T04:30:18;2.45;;;2.00;;
79761;SDS011;69249;42.122;24.734;2024-01-27T04:32:44;2.78;;;1.70;;
79761;SDS011;69249;42.122;24.734;2024-01-27T04:35:09;2.60;;;1.70;;
79761;SDS011;69249;42.122;24.734;2024-01-27T04:37:36;4.00;;;1.92;;
79761;SDS011;69249;42.122;24.734;2024-01-27T04:40:03;4.57;;;1.95;;
79761;SDS011;69249;42.122;24.734;2024-01-27T04:42:37;2.17;;;1.80;;
79761;SDS011;69249;42.122;24.734;2024-01-27T04:45:03;2.30;;;1.58;;
79761;SDS011;69249;42.122;24.734;2024-01-27T04:47:30;3.10;;;1.88;;
79761;SDS011;69249;42.122;24.734;2024-01-27T04:49:56;4.90;;;1.95;;
79761;SDS011;69249;42.122;24.734;2024-01-27T04:52:22;8.18;;;1.90;;
79761;SDS011;69249;42.122;24.734;2024-01-27T04:54:48;5.28;;;2.08;;
79761;SDS011;69249;42.122;24.734;2024-01-27T04:57:14;5.97;;;1.77;;
79761;SDS011;69249;42.122;24.734;2024-01-27T04:59:39;7.47;;;3.72;;
79761;SDS011;69249;42.122;24.734;2024-01-27T05:02:05;4.32;;;2.45;;
79761;SDS011;69249;42.122;24.734;2024-01-27T05:04:31;6.10;;;1.80;;
79761;SDS011;69249;42.122;24.734;2024-01-27T05:06:57;4.20;;;1.92;;
79761;SDS011;69249;42.122;24.734;2024-01-27T05:09:23;3.95;;;2.00;;
79761;SDS011;69249;42.122;24.734;2024-01-27T05:11:49;3.20;;;2.70;;
79761;SDS011;69249;42.122;24.734;2024-01-27T05:14:17;2.90;;;2.05;;
79761;SDS011;69249;42.122;24.734;2024-01-27T05:16:43;4.85;;;3.03;;
79761;SDS011;69249;42.122;24.734;2024-01-27T05:19:10;6.90;;;3.15;;
79761;SDS011;69249;42.122;24.734;2024-01-27T05:21:36;3.20;;;2.20;;
79761;SDS011;69249;42.122;24.734;2024-01-27T05:24:03;2.85;;;2.20;;
79761;SDS011;69249;42.122;24.734;2024-01-27T05:26:29;7.05;;;2.55;;
79761;SDS011;69249;42.122;24.734;2024-01-27T05:28:54;5.10;;;2.22;;
79761;SDS011;69249;42.122;24.734;2024-01-27T05:31:20;8.13;;;2.80;;
79761;SDS011;69249;42.122;24.734;2024-01-27T05:33:46;3.97;;;1.80;;
79761;SDS011;69249;42.122;24.734;2024-01-27T05:36:11;4.90;;;2.03;;
79761;SDS011;69249;42.122;24.734;2024-01-27T05:38:37;3.13;;;1.77;;
79761;SDS011;69249;42.122;24.734;2024-01-27T05:41:03;2.28;;;1.85;;
79761;SDS011;69249;42.122;24.734;2024-01-27T05:43:29;4.97;;;2.15;;
79761;SDS011;69249;42.122;24.734;2024-01-27T05:45:55;6.10;;;2.25;;
79761;SDS011;69249;42.122;24.734;2024-01-27T05:48:20;4.05;;;2.10;;
79761;SDS011;69249;42.122;24.734;2024-01-27T05:50:59;4.00;;;2.50;;
79761;SDS011;69249;42.122;24.734;2024-01-27T05:53:25;4.45;;;2.13;;
79761;SDS011;69249;42.122;24.734;2024-01-27T05:55:51;3.33;;;2.20;;
79761;SDS011;69249;42.122;24.734;2024-01-27T05:58:20;4.70;;;2.80;;
79761;SDS011;69249;42.122;24.734;2024-01-27T06:00:46;6.20;;;3.90;;
79761;SDS011;69249;42.122;24.734;2024-01-27T06:03:13;6.80;;;4.60;;
79761;SDS011;69249;42.122;24.734;2024-01-27T06:05:40;7.32;;;3.47;;
79761;SDS011;69249;42.122;24.734;2024-01-27T06:08:07;5.60;;;2.85;;
79761;SDS011;69249;42.122;24.734;2024-01-27T06:10:33;6.88;;;3.55;;
79761;SDS011;69249;42.122;24.734;2024-01-27T06:12:58;4.75;;;2.80;;
79761;SDS011;69249;42.122;24.734;2024-01-27T06:15:24;7.00;;;3.08;;
79761;SDS011;69249;42.122;24.734;2024-01-27T06:17:50;5.55;;;4.15;;
79761;SDS011;69249;42.122;24.734;2024-01-27T06:20:16;3.97;;;2.60;;
79761;SDS011;69249;42.122;24.734;2024-01-27T06:22:43;7.55;;;4.47;;
79761;SDS011;69249;42.122;24.734;2024-01-27T06:25:08;5.90;;;3.30;;
79761;SDS011;69249;42.122;24.734;2024-01-27T06:27:35;3.08;;;2.30;;
79761;SDS011;69249;42.122;24.734;2024-01-27T06:30:02;4.97;;;3.08;;
79761;SDS011;69249;42.122;24.734;2024-01-27T06:32:29;5.28;;;3.20;;
79761;SDS011;69249;42.122;24.734;2024-01-27T06:34:54;4.03;;;2.60;;
79761;SDS011;69249;42.122;24.734;2024-01-27T06:37:20;5.00;;;2.83;;
79761;SDS011;69249;42.122;24.734;2024-01-27T06:39:46;6.68;;;3.33;;
79761;SDS011;69249;42.122;24.734;2024-01-27T06:42:11;6.88;;;3.47;;
79761;SDS011;69249;42.122;24.734;2024-01-27T06:44:37;5.68;;;3.65;;
79761;SDS011;69249;42.122;24.734;2024-01-27T06:47:03;2.95;;;2.55;;
79761;SDS011;69249;42.122;24.734;2024-01-27T06:49:28;4.35;;;2.50;;
79761;SDS011;69249;42.122;24.734;2024-01-27T06:51:54;5.13;;;2.72;;
79761;SDS011;69249;42.122;24.734;2024-01-27T06:54:19;5.43;;;3.03;;
79761;SDS011;69249;42.122;24.734;2024-01-27T06:56:45;5.70;;;4.43;;
79761;SDS011;69249;42.122;24.734;2024-01-27T06:59:11;6.80;;;3.63;;
79761;SDS011;69249;42.122;24.734;2024-01-27T07:01:38;4.95;;;2.97;;
79761;SDS011;69249;42.122;24.734;2024-01-27T07:04:04;9.73;;;3.30;;
79761;SDS011;69249;42.122;24.734;2024-01-27T07:06:30;11.32;;;3.88;;
79761;SDS011;69249;42.122;24.734;2024-01-27T07:08:56;5.22;;;3.20;;
79761;SDS011;69249;42.122;24.734;2024-01-27T07:11:21;5.00;;;2.78;;
79761;SDS011;69249;42.122;24.734;2024-01-27T07:13:47;5.95;;;2.70;;
79761;SDS011;69249;42.122;24.734;2024-01-27T07:16:13;4.70;;;2.65;;
79761;SDS011;69249;42.122;24.734;2024-01-27T07:18:38;5.68;;;2.85;;
79761;SDS011;69249;42.122;24.734;2024-01-27T07:21:04;6.60;;;2.97;;
79761;SDS011;69249;42.122;24.734;2024-01-27T07:23:29;3.05;;;2.38;;
79761;SDS011;69249;42.122;24.734;2024-01-27T07:25:55;4.03;;;2.42;;
79761;SDS011;69249;42.122;24.734;2024-01-27T07:28:22;7.72;;;2.95;;
79761;SDS011;69249;42.122;24.734;2024-01-27T07:30:47;4.95;;;3.33;;
79761;SDS011;69249;42.122;24.734;2024-01-27T07:33:13;4.85;;;2.85;;
79761;SDS011;69249;42.122;24.734;2024-01-27T07:35:39;3.30;;;2.30;;
79761;SDS011;69249;42.122;24.734;2024-01-27T07:38:05;8.18;;;2.92;;
79761;SDS011;69249;42.122;24.734;2024-01-27T07:40:31;3.65;;;2.60;;
79761;SDS011;69249;42.122;24.734;2024-01-27T07:42:56;4.95;;;2.47;;
79761;SDS011;69249;42.122;24.734;2024-01-27T07:45:22;4.82;;;2.75;;
79761;SDS011;69249;42.122;24.734;2024-01-27T07:47:48;6.93;;;4.13;;
79761;SDS011;69249;42.122;24.734;2024-01-27T07:50:13;9.32;;;6.93;;
79761;SDS011;69249;42.122;24.734;2024-01-27T07:52:39;5.00;;;2.72;;
79761;SDS011;69249;42.122;24.734;2024-01-27T07:55:05;8.27;;;2.92;;
79761;SDS011;69249;42.122;24.734;2024-01-27T07:57:31;6.05;;;3.40;;
79761;SDS011;69249;42.122;24.734;2024-01-27T07:59:57;5.72;;;3.65;;
79761;SDS011;69249;42.122;24.734;2024-01-27T08:02:22;5.25;;;2.92;;
79761;SDS011;69249;42.122;24.734;2024-01-27T08:04:48;4.65;;;3.13;;
79761;SDS011;69249;42.122;24.734;2024-01-27T08:07:14;5.53;;;3.28;;
79761;SDS011;69249;42.122;24.734;2024-01-27T08:09:41;5.93;;;3.40;;
79761;SDS011;69249;42.122;24.734;2024-01-27T08:12:07;8.63;;;3.53;;
79761;SDS011;69249;42.122;24.734;2024-01-27T08:14:33;8.30;;;4.13;;
79761;SDS011;69249;42.122;24.734;2024-01-27T08:17:00;6.75;;;3.90;;
79761;SDS011;69249;42.122;24.734;2024-01-27T08:19:26;7.57;;;5.20;;
79761;SDS011;69249;42.122;24.734;2024-01-27T08:21:51;8.48;;;5.30;;
79761;SDS011;69249;42.122;24.734;2024-01-27T08:24:17;8.45;;;5.68;;
79761;SDS011;69249;42.122;24.734;2024-01-27T08:26:43;6.30;;;4.72;;
79761;SDS011;69249;42.122;24.734;2024-01-27T08:29:09;6.97;;;4.03;;
79761;SDS011;69249;42.122;24.734;2024-01-27T08:31:35;6.82;;;3.83;;
79761;SDS011;69249;42.122;24.734;2024-01-27T08:34:03;6.93;;;3.30;;
79761;SDS011;69249;42.122;24.734;2024-01-27T08:36:29;4.97;;;3.63;;
79761;SDS011;69249;42.122;24.734;2024-01-27T08:38:54;6.97;;;4.30;;
79761;SDS011;69249;42.122;24.734;2024-01-27T08:41:20;7.82;;;3.95;;
79761;SDS011;69249;42.122;24.734;2024-01-27T08:43:45;5.45;;;3.75;;
79761;SDS011;69249;42.122;24.734;2024-01-27T08:46:11;8.57;;;3.90;;
79761;SDS011;69249;42.122;24.734;2024-01-27T08:48:38;5.38;;;3.28;;
79761;SDS011;69249;42.122;24.734;2024-01-27T08:51:08;6.43;;;4.05;;
79761;SDS011;69249;42.122;24.734;2024-01-27T08:53:34;3.72;;;2.75;;
79761;SDS011;69249;42.122;24.734;2024-01-27T08:56:00;3.38;;;2.78;;
79761;SDS011;69249;42.122;24.734;2024-01-27T08:58:26;2.47;;;2.10;;
79761;SDS011;69249;42.122;24.734;2024-01-27T09:00:52;6.82;;;2.58;;
79761;SDS011;69249;42.122;24.734;2024-01-27T09:03:18;5.18;;;2.30;;
79761;SDS011;69249;42.122;24.734;2024-01-27T09:05:45;2.83;;;2.15;;
79761;SDS011;69249;42.122;24.734;2024-01-27T09:08:11;5.63;;;2.78;;
79761;SDS011;69249;42.122;24.734;2024-01-27T09:10:37;5.63;;;2.67;;
79761;SDS011;69249;42.122;24.734;2024-01-27T09:13:03;5.93;;;2.72;;
79761;SDS011;69249;42.122;24.734;2024-01-27T09:15:30;4.05;;;2.88;;
79761;SDS011;69249;42.122;24.734;2024-01-27T09:17:55;8.52;;;4.03;;
79761;SDS011;69249;42.122;24.734;2024-01-27T09:20:22;4.28;;;2.90;;
79761;SDS011;69249;42.122;24.734;2024-01-27T09:22:47;8.32;;;3.00;;
79761;SDS011;69249;42.122;24.734;2024-01-27T09:25:15;3.28;;;2.47;;
79761;SDS011;69249;42.122;24.734;2024-01-27T09:27:40;4.03;;;3.17;;
79761;SDS011;69249;42.122;24.734;2024-01-27T09:30:06;5.03;;;2.78;;
79761;SDS011;69249;42.122;24.734;2024-01-27T09:32:32;4.38;;;2.45;;
79761;SDS011;69249;42.122;24.734;2024-01-27T09:34:59;5.20;;;2.75;;
79761;SDS011;69249;42.122;24.734;2024-01-27T09:37:25;8.73;;;2.92;;
79761;SDS011;69249;42.122;24.734;2024-01-27T09:39:50;6.05;;;2.95;;
79761;SDS011;69249;42.122;24.734;2024-01-27T09:42:16;8.35;;;2.65;;
79761;SDS011;69249;42.122;24.734;2024-01-27T09:44:47;8.40;;;2.95;;
79761;SDS011;69249;42.122;24.734;2024-01-27T09:47:14;6.50;;;2.92;;
79761;SDS011;69249;42.122;24.734;2024-01-27T09:49:40;4.85;;;2.25;;
79761;SDS011;69249;42.122;24.734;2024-01-27T09:52:07;5.13;;;2.08;;
79761;SDS011;69249;42.122;24.734;2024-01-27T09:54:33;7.80;;;2.17;;
79761;SDS011;69249;42.122;24.734;2024-01-27T09:57:00;5.68;;;2.90;;
79761;SDS011;69249;42.122;24.734;2024-01-27T09:59:27;4.18;;;2.33;;
79761;SDS011;69249;42.122;24.734;2024-01-27T10:01:53;4.03;;;1.90;;
79761;SDS011;69249;42.122;24.734;2024-01-27T10:04:21;4.75;;;2.10;;
79761;SDS011;69249;42.122;24.734;2024-01-27T10:06:50;5.88;;;2.35;;
79761;SDS011;69249;42.122;24.734;2024-01-27T10:09:22;5.22;;;1.95;;
79761;SDS011;69249;42.122;24.734;2024-01-27T10:11:48;4.60;;;2.00;;
79761;SDS011;69249;42.122;24.734;2024-01-27T10:14:14;2.90;;;1.90;;
79761;SDS011;69249;42.122;24.734;2024-01-27T10:16:40;4.68;;;2.67;;
79761;SDS011;69249;42.122;24.734;2024-01-27T10:19:08;4.10;;;1.98;;
79761;SDS011;69249;42.122;24.734;2024-01-27T10:21:42;4.47;;;2.00;;
79761;SDS011;69249;42.122;24.734;2024-01-27T10:27:39;2.95;;;1.98;;
79761;SDS011;69249;42.122;24.734;2024-01-27T10:30:25;2.03;;;1.80;;
79761;SDS011;69249;42.122;24.734;2024-01-27T10:35:57;5.35;;;2.13;;
79761;SDS011;69249;42.122;24.734;2024-01-27T10:38:35;2.60;;;2.05;;
79761;SDS011;69249;42.122;24.734;2024-01-27T10:41:02;19.65;;;10.10;;
79761;SDS011;69249;42.122;24.734;2024-01-27T10:43:33;27.13;;;9.48;;
79761;SDS011;69249;42.122;24.734;2024-01-27T10:46:00;25.52;;;8.88;;
79761;SDS011;69249;42.122;24.734;2024-01-27T10:48:30;5.72;;;4.50;;
79761;SDS011;69249;42.122;24.734;2024-01-27T10:57:40;3.75;;;2.08;;
79761;SDS011;69249;42.122;24.734;2024-01-27T11:00:07;2.97;;;1.90;;
79761;SDS011;69249;42.122;24.734;2024-01-27T11:12:40;7.07;;;3.92;;
79761;SDS011;69249;42.122;24.734;2024-01-27T11:15:07;4.65;;;3.05;;
79761;SDS011;69249;42.122;24.734;2024-01-27T11:17:39;4.80;;;2.17;;
79761;SDS011;69249;42.122;24.734;2024-01-27T11:20:07;2.88;;;2.03;;
79761;SDS011;69249;42.122;24.734;2024-01-27T11:26:07;3.60;;;2.33;;
79761;SDS011;69249;42.122;24.734;2024-01-27T11:28:34;3.05;;;2.33;;
79761;SDS011;69249;42.122;24.734;2024-01-27T11:31:07;3.60;;;2.30;;
79761;SDS011;69249;42.122;24.734;2024-01-27T11:35:59;2.20;;;2.00;;
79761;SDS011;69249;42.122;24.734;2024-01-27T11:38:27;3.60;;;2.13;;
79761;SDS011;69249;42.122;24.734;2024-01-27T11:40:53;4.25;;;2.25;;
79761;SDS011;69249;42.122;24.734;2024-01-27T11:43:18;2.42;;;2.20;;
79761;SDS011;69249;42.122;24.734;2024-01-27T11:45:54;2.20;;;2.00;;
79761;SDS011;69249;42.122;24.734;2024-01-27T11:48:20;2.92;;;1.70;;
79761;SDS011;69249;42.122;24.734;2024-01-27T11:50:47;2.30;;;2.00;;
79761;SDS011;69249;42.122;24.734;2024-01-27T11:53:12;3.50;;;2.78;;
79761;SDS011;69249;42.122;24.734;2024-01-27T11:55:38;3.88;;;2.30;;
79761;SDS011;69249;42.122;24.734;2024-01-27T11:58:04;5.13;;;2.10;;
79761;SDS011;69249;42.122;24.734;2024-01-27T12:00:30;4.82;;;2.10;;
79761;SDS011;69249;42.122;24.734;2024-01-27T12:02:56;4.78;;;1.95;;
79761;SDS011;69249;42.122;24.734;2024-01-27T12:05:21;1.95;;;1.85;;
79761;SDS011;69249;42.122;24.734;2024-01-27T12:07:47;2.88;;;2.58;;
79761;SDS011;69249;42.122;24.734;2024-01-27T12:10:14;7.53;;;2.25;;
79761;SDS011;69249;42.122;24.734;2024-01-27T12:12:39;4.32;;;1.70;;
79761;SDS011;69249;42.122;24.734;2024-01-27T12:15:05;2.28;;;2.10;;
79761;SDS011;69249;42.122;24.734;2024-01-27T12:17:31;2.67;;;1.98;;
79761;SDS011;69249;42.122;24.734;2024-01-27T12:19:57;7.72;;;1.95;;
79761;SDS011;69249;42.122;24.734;2024-01-27T12:22:26;2.33;;;1.83;;
79761;SDS011;69249;42.122;24.734;2024-01-27T12:24:56;1.95;;;1.73;;
79761;SDS011;69249;42.122;24.734;2024-01-27T12:27:33;2.00;;;1.90;;
79761;SDS011;69249;42.122;24.734;2024-01-27T13:01:20;2.88;;;2.15;;
79761;SDS011;69249;42.122;24.734;2024-01-27T13:03:47;2.47;;;2.00;;
79761;SDS011;69249;42.122;24.734;2024-01-27T13:06:15;2.13;;;1.90;;
79761;SDS011;69249;42.122;24.734;2024-01-27T13:08:41;2.97;;;1.83;;
79761;SDS011;69249;42.122;24.734;2024-01-27T13:11:07;3.03;;;2.20;;
79761;SDS011;69249;42.122;24.734;2024-01-27T13:13:32;3.58;;;2.53;;
79761;SDS011;69249;42.122;24.734;2024-01-27T13:15:58;6.10;;;2.97;;
79761;SDS011;69249;42.122;24.734;2024-01-27T13:18:24;6.22;;;2.45;;
79761;SDS011;69249;42.122;24.734;2024-01-27T13:20:49;4.28;;;1.98;;
79761;SDS011;69249;42.122;24.734;2024-01-27T13:23:15;2.97;;;1.70;;
79761;SDS011;69249;42.122;24.734;2024-01-27T13:25:40;7.03;;;3.42;;
79761;SDS011;69249;42.122;24.734;2024-01-27T13:28:06;6.65;;;2.88;;
79761;SDS011;69249;42.122;24.734;2024-01-27T13:30:36;7.75;;;2.60;;
79761;SDS011;69249;42.122;24.734;2024-01-27T13:33:02;10.85;;;6.43;;
79761;SDS011;69249;42.122;24.734;2024-01-27T13:35:27;4.55;;;3.53;;
79761;SDS011;69249;42.122;24.734;2024-01-27T13:37:53;7.45;;;4.68;;
79761;SDS011;69249;42.122;24.734;2024-01-27T13:40:19;2.90;;;2.28;;
79761;SDS011;69249;42.122;24.734;2024-01-27T13:42:44;3.00;;;2.70;;
79761;SDS011;69249;42.122;24.734;2024-01-27T13:45:10;5.60;;;2.75;;
79761;SDS011;69249;42.122;24.734;2024-01-27T13:47:36;5.47;;;3.05;;
79761;SDS011;69249;42.122;24.734;2024-01-27T13:50:02;3.28;;;2.70;;
79761;SDS011;69249;42.122;24.734;2024-01-27T13:52:28;4.15;;;3.50;;
79761;SDS011;69249;42.122;24.734;2024-01-27T13:54:54;3.75;;;2.50;;
79761;SDS011;69249;42.122;24.734;2024-01-27T13:57:20;4.85;;;2.50;;
79761;SDS011;69249;42.122;24.734;2024-01-27T13:59:46;4.13;;;2.83;;
79761;SDS011;69249;42.122;24.734;2024-01-27T14:02:12;3.50;;;2.42;;
79761;SDS011;69249;42.122;24.734;2024-01-27T14:04:38;7.53;;;3.40;;
79761;SDS011;69249;42.122;24.734;2024-01-27T14:07:04;3.13;;;2.72;;
79761;SDS011;69249;42.122;24.734;2024-01-27T14:09:33;4.20;;;2.72;;
79761;SDS011;69249;42.122;24.734;2024-01-27T14:11:59;2.90;;;1.80;;
79761;SDS011;69249;42.122;24.734;2024-01-27T14:14:26;3.05;;;2.63;;
79761;SDS011;69249;42.122;24.734;2024-01-27T14:16:51;4.85;;;2.28;;
79761;SDS011;69249;42.122;24.734;2024-01-27T14:19:17;8.75;;;2.42;;
79761;SDS011;69249;42.122;24.734;2024-01-27T14:21:43;8.65;;;2.22;;
79761;SDS011;69249;42.122;24.734;2024-01-27T14:24:08;3.20;;;2.42;;
79761;SDS011;69249;42.122;24.734;2024-01-27T14:26:35;2.80;;;2.50;;
79761;SDS011;69249;42.122;24.734;2024-01-27T14:29:01;2.40;;;2.20;;
79761;SDS011;69249;42.122;24.734;2024-01-27T14:31:28;2.63;;;2.20;;
79761;SDS011;69249;42.122;24.734;2024-01-27T14:33:55;2.47;;;2.22;;
79761;SDS011;69249;42.122;24.734;2024-01-27T14:36:21;2.40;;;2.10;;
79761;SDS011;69249;42.122;24.734;2024-01-27T14:38:48;3.22;;;2.00;;
79761;SDS011;69249;42.122;24.734;2024-01-27T14:41:14;3.50;;;2.20;;
79761;SDS011;69249;42.122;24.734;2024-01-27T14:43:40;2.80;;;2.53;;
79761;SDS011;69249;42.122;24.734;2024-01-27T14:46:06;4.35;;;2.35;;
79761;SDS011;69249;42.122;24.734;2024-01-27T14:48:32;2.45;;;2.20;;
79761;SDS011;69249;42.122;24.734;2024-01-27T14:50:58;4.45;;;2.10;;
79761;SDS011;69249;42.122;24.734;2024-01-27T14:53:27;2.58;;;2.22;;
79761;SDS011;69249;42.122;24.734;2024-01-27T14:55:54;1.98;;;1.80;;
79761;SDS011;69249;42.122;24.734;2024-01-27T14:58:21;2.53;;;2.30;;
79761;SDS011;69249;42.122;24.734;2024-01-27T15:00:47;7.55;;;2.63;;
79761;SDS011;69249;42.122;24.734;2024-01-27T15:03:17;2.42;;;2.22;;
79761;SDS011;69249;42.122;24.734;2024-01-27T15:05:48;4.28;;;2.20;;
79761;SDS011;69249;42.122;24.734;2024-01-27T15:08:17;3.83;;;2.80;;
79761;SDS011;69249;42.122;24.734;2024-01-27T15:10:44;2.67;;;2.15;;
79761;SDS011;69249;42.122;24.734;2024-01-27T15:13:10;6.22;;;2.40;;
79761;SDS011;69249;42.122;24.734;2024-01-27T15:15:36;2.30;;;2.10;;
79761;SDS011;69249;42.122;24.734;2024-01-27T15:18:03;2.50;;;2.10;;
79761;SDS011;69249;42.122;24.734;2024-01-27T15:20:32;2.65;;;2.30;;
79761;SDS011;69249;42.122;24.734;2024-01-27T15:22:57;4.70;;;1.92;;
79761;SDS011;69249;42.122;24.734;2024-01-27T15:25:23;4.18;;;2.22;;
79761;SDS011;69249;42.122;24.734;2024-01-27T15:27:49;3.25;;;2.08;;